Time;durP1;ratioP1;P1;durP2;ratioP2;P2;SDS_P1;SDS_P2;PMS_P1;PMS_P2;Temp;Humidity;BMP_temperature;BMP_pressure;BME280_temperature;BME280_humidity;BME280_pressure;Samples;Min_cycle;Max_cycle;Signal;HPM_P1;HPM_P2
2023/08/23 00:04:58;;;;;;;;;;;24.20;92.20;;;23.32;80.85;100116.75;9742475;29;97074;-85
2023/08/23 00:10:02;;;;;;;;;;;24.20;92.40;;;23.21;82.29;100113.09;9762584;29;96826;-85
2023/08/23 00:15:07;;;;;;;;;;;24.10;93.10;;;23.05;82.21;100117.50;9755527;29;97716;-84
2023/08/23 00:20:11;;;;;;;;;;;23.90;93.40;;;22.94;81.59;100104.91;9731736;29;98268;-84
2023/08/23 00:25:14;;;;;;;;;;;23.80;93.00;;;22.90;82.72;100104.56;9725683;29;100304;-85
2023/08/23 00:30:18;;;;;;;;;;;23.80;93.30;;;22.86;83.40;100105.31;9749909;29;98542;-85
2023/08/23 00:35:21;;;;;;;;;;;23.70;93.40;;;22.79;83.21;100107.38;9747363;29;96618;-84
2023/08/23 00:40:25;;;;;;;;;;;23.60;93.40;;;22.75;84.45;100107.06;9754525;29;96696;-84
2023/08/23 00:45:30;;;;;;;;;;;23.60;94.00;;;22.67;85.02;100102.91;9762307;29;98269;-84
2023/08/23 00:50:34;;;;;;;;;;;23.50;94.10;;;22.58;85.42;100104.38;9746843;29;97575;-84
2023/08/23 00:55:38;;;;;;;;;;;23.50;93.90;;;22.51;85.74;100097.50;9734501;29;96802;-84
2023/08/23 01:00:42;;;;;;;;;;;23.40;93.90;;;22.47;86.17;100090.94;9733045;29;98339;-84
2023/08/23 01:05:45;;;;;;;;;;;23.40;93.90;;;22.52;86.19;100099.97;9743524;29;96672;-84
2023/08/23 01:11:07;;;;;;;;;;;23.40;93.90;;;22.51;86.32;100090.22;9759701;29;97603;-84
2023/08/23 01:16:11;;;;;;;;;;;23.40;94.90;;;22.42;86.82;100088.97;9755292;29;96738;-84
2023/08/23 01:21:19;;;;;;;;;;;23.30;94.80;;;22.33;87.56;100085.88;9735623;29;96636;-84
2023/08/23 01:26:22;;;;;;;;;;;23.20;95.30;;;22.28;88.44;100084.97;9756787;29;96905;-84
2023/08/23 01:31:29;;;;;;;;;;;23.10;95.50;;;22.20;88.46;100086.22;9749005;29;96727;-84
2023/08/23 01:36:34;;;;;;;;;;;23.00;95.40;;;22.13;88.43;100081.00;9744336;29;97578;-84
2023/08/23 01:41:38;;;;;;;;;;;23.00;95.60;;;22.04;88.79;100077.00;9737833;29;96800;-84
2023/08/23 01:46:42;;;;;;;;;;;23.00;95.20;;;22.07;89.62;100081.09;9744289;29;96940;-84
2023/08/23 01:51:45;;;;;;;;;;;23.00;95.80;;;22.02;90.28;100081.03;9761730;29;96723;-84
2023/08/23 01:56:49;;;;;;;;;;;22.90;96.20;;;21.95;90.34;100075.78;9742007;29;99354;-83
2023/08/23 02:01:52;;;;;;;;;;;22.80;96.10;;;21.84;90.72;100074.78;9747242;29;96935;-84
2023/08/23 02:06:55;;;;;;;;;;;22.80;96.50;;;21.77;92.06;100076.00;9734875;29;97741;-84
2023/08/23 02:11:59;;;;;;;;;;;22.70;96.70;;;21.72;92.79;100067.81;9752323;29;96696;-83
2023/08/23 02:17:03;;;;;;;;;;;22.60;97.10;;;21.62;93.71;100069.28;9733241;29;98243;-83
2023/08/23 02:22:07;;;;;;;;;;;22.50;97.70;;;21.53;95.16;100057.22;9731968;29;96994;-84
2023/08/23 02:27:10;;;;;;;;;;;22.40;97.70;;;21.47;95.89;100060.06;9740953;29;97163;-83
2023/08/23 02:32:13;;;;;;;;;;;22.30;98.30;;;21.37;96.12;100039.09;9723497;29;98737;-83
2023/08/23 02:37:17;;;;;;;;;;;22.20;98.20;;;21.40;95.95;100043.16;9749662;29;96738;-84
2023/08/23 02:42:21;;;;;;;;;;;22.30;98.00;;;21.41;95.94;100042.94;9735467;29;98014;-84
2023/08/23 02:47:24;;;;;;;;;;;22.30;98.40;;;21.50;95.84;100041.47;9740880;29;97579;-84
2023/08/23 02:52:27;;;;;;;;;;;22.40;98.20;;;21.54;96.40;100039.94;9728705;29;98470;-84
2023/08/23 02:57:31;;;;;;;;;;;22.50;98.90;;;21.54;95.72;100037.22;9742387;29;96680;-84
2023/08/23 03:02:35;;;;;;;;;;;22.50;98.10;;;21.55;95.47;100041.56;9748587;29;96672;-84
2023/08/23 03:07:38;;;;;;;;;;;22.50;98.70;;;21.49;95.89;100039.84;9741286;29;96840;-84
2023/08/23 03:12:42;;;;;;;;;;;22.40;99.00;;;21.50;95.94;100038.78;9737204;29;96742;-84
2023/08/23 03:17:45;;;;;;;;;;;22.40;99.10;;;21.47;96.64;100043.84;9742619;29;97387;-84
2023/08/23 03:22:49;;;;;;;;;;;22.40;99.30;;;21.43;97.73;100035.41;9747045;29;96852;-83
2023/08/23 03:27:53;;;;;;;;;;;22.30;99.50;;;21.40;98.27;100037.75;9755641;29;96954;-84
2023/08/23 03:32:56;;;;;;;;;;;22.40;99.00;;;21.43;98.22;100035.41;9732897;29;96997;-83
2023/08/23 03:38:00;;;;;;;;;;;22.40;99.90;;;21.38;98.34;100032.59;9753822;29;98519;-84
2023/08/23 03:43:04;;;;;;;;;;;22.40;99.90;;;21.37;98.89;100042.59;9731177;29;97438;-85
2023/08/23 03:48:08;;;;;;;;;;;22.40;99.90;;;21.33;99.29;100038.72;9742083;29;96904;-84
2023/08/23 03:53:11;;;;;;;;;;;22.30;99.90;;;21.30;99.07;100038.41;9757839;29;96820;-84
2023/08/23 03:58:15;;;;;;;;;;;22.30;99.90;;;21.25;99.26;100025.59;9730964;29;99356;-84
2023/08/23 04:03:18;;;;;;;;;;;22.20;99.90;;;21.22;99.10;100022.53;9757614;29;97477;-84
2023/08/23 04:08:22;;;;;;;;;;;22.20;99.90;;;21.19;100.00;100029.25;9733508;29;98358;-84
2023/08/23 04:13:26;;;;;;;;;;;22.10;99.90;;;21.16;100.00;100020.81;9761486;29;98787;-84
2023/08/23 04:18:29;;;;;;;;;;;22.10;99.90;;;21.15;100.00;100016.47;9748967;29;97301;-84
2023/08/23 04:23:33;;;;;;;;;;;22.10;99.90;;;21.15;100.00;100008.34;9756286;29;97400;-84
2023/08/23 04:28:37;;;;;;;;;;;22.10;99.90;;;21.17;100.00;100007.06;9739639;29;98280;-84
2023/08/23 04:33:41;;;;;;;;;;;22.10;99.90;;;21.25;100.00;100013.97;9744794;29;97201;-84
2023/08/23 04:38:45;;;;;;;;;;;22.20;99.90;;;21.29;100.00;100009.72;9742991;29;98130;-84
2023/08/23 04:43:48;;;;;;;;;;;22.20;99.90;;;21.42;100.00;100008.63;9741440;29;98694;-85
2023/08/23 04:48:52;;;;;;;;;;;22.30;99.90;;;21.49;100.00;100006.59;9731974;29;98560;-85
2023/08/23 04:53:56;;;;;;;;;;;22.40;99.90;;;21.58;100.00;100002.41;9745124;29;96831;-85
2023/08/23 04:58:59;;;;;;;;;;;22.40;99.90;;;21.72;100.00;100016.44;9750343;29;98063;-85
2023/08/23 05:04:03;;;;;;;;;;;22.60;99.90;;;21.82;100.00;100011.16;9746303;29;97109;-85
2023/08/23 05:09:07;;;;;;;;;;;22.70;99.90;;;22.00;100.00;100015.50;9751280;29;98619;-85
2023/08/23 05:14:10;;;;;;;;;;;22.90;99.90;;;22.08;100.00;100005.09;9739604;29;98301;-85
2023/08/23 05:19:13;;;;;;;;;;;23.10;99.90;;;22.28;100.00;100009.19;9755940;29;96927;-85
2023/08/23 05:24:17;;;;;;;;;;;23.20;99.90;;;22.43;100.00;100009.38;9726567;29;97522;-85
2023/08/23 05:29:20;;;;;;;;;;;23.30;99.90;;;22.60;100.00;100007.44;9723174;29;98452;-84
2023/08/23 05:34:24;;;;;;;;;;;23.60;99.90;;;22.80;100.00;100009.63;9734034;29;98476;-84
2023/08/23 05:39:28;;;;;;;;;;;23.70;99.90;;;22.94;100.00;100010.06;9745001;29;96730;-85
2023/08/23 05:44:31;;;;;;;;;;;23.90;99.90;;;23.06;100.00;99997.19;9739633;29;97297;-84
2023/08/23 05:49:35;;;;;;;;;;;24.10;99.90;;;23.29;100.00;100004.22;9737122;29;97558;-87
2023/08/23 05:54:38;;;;;;;;;;;24.20;99.90;;;23.54;100.00;100019.91;9728878;29;97875;-87
2023/08/23 05:59:42;;;;;;;;;;;24.50;99.90;;;23.74;99.45;100009.25;9743703;29;97531;-86
2023/08/23 06:04:45;;;;;;;;;;;24.80;99.90;;;23.95;97.85;100015.66;9716697;29;98709;-86
2023/08/23 06:09:48;;;;;;;;;;;24.90;99.90;;;24.21;98.01;100023.97;9740466;29;97682;-87
2023/08/23 06:14:52;;;;;;;;;;;25.10;99.90;;;24.43;96.07;100019.25;9734089;29;97225;-87
2023/08/23 06:19:56;;;;;;;;;;;25.40;99.90;;;24.65;94.72;100027.25;9744948;29;96840;-88
2023/08/23 06:25:00;;;;;;;;;;;25.60;99.90;;;24.88;93.47;100022.41;9724594;29;97609;-88
2023/08/23 06:30:04;;;;;;;;;;;25.80;99.90;;;25.11;93.20;100021.97;9735571;29;97744;-89
2023/08/23 06:35:08;;;;;;;;;;;26.10;99.90;;;25.27;92.18;100017.41;9752188;29;98578;-88
2023/08/23 06:40:13;;;;;;;;;;;26.20;99.90;;;25.44;91.03;100019.88;9738527;29;98538;-88
2023/08/23 06:45:16;;;;;;;;;;;26.40;99.90;;;25.60;90.08;100019.59;9740002;29;97481;-88
2023/08/23 06:50:20;;;;;;;;;;;26.60;99.90;;;25.77;88.72;100013.94;9747354;29;97721;-87
2023/08/23 06:55:25;;;;;;;;;;;26.80;99.90;;;25.99;86.63;100016.38;9735557;29;96863;-88
2023/08/23 07:00:29;;;;;;;;;;;27.00;99.90;;;26.24;85.92;100015.50;9749193;29;96980;-88
2023/08/23 07:05:34;;;;;;;;;;;27.20;99.90;;;26.51;85.23;100020.66;9724397;29;96734;-88
2023/08/23 07:10:38;;;;;;;;;;;27.50;99.80;;;26.75;81.08;100011.81;9712833;29;100403;-88
2023/08/23 07:15:41;;;;;;;;;;;27.80;99.00;;;27.00;80.42;100011.72;9751732;29;97056;-88
2023/08/23 07:20:45;;;;;;;;;;;28.00;98.60;;;27.28;79.75;100015.66;9768552;29;97700;-88
2023/08/23 07:25:48;;;;;;;;;;;28.30;98.40;;;27.52;78.83;100023.94;9747374;29;97006;-88
2023/08/23 07:30:57;;;;;;;;;;;28.50;98.20;;;27.80;77.27;100027.03;9745395;29;98535;-86
2023/08/23 07:36:01;;;;;;;;;;;28.80;97.80;;;28.06;76.21;100042.09;9737578;29;98468;-87
2023/08/23 07:41:05;;;;;;;;;;;29.00;97.30;;;28.31;74.25;100041.03;9727719;29;98452;-87
2023/08/23 07:46:09;;;;;;;;;;;29.20;96.80;;;28.57;71.84;100038.06;9736041;29;99057;-87
2023/08/23 07:51:13;;;;;;;;;;;29.50;95.80;;;28.70;63.96;100035.44;9755507;29;100289;-90
2023/08/23 07:56:17;;;;;;;;;;;29.70;92.50;;;28.78;62.94;100033.97;9742267;29;97225;-89
2023/08/23 08:01:21;;;;;;;;;;;29.70;92.00;;;28.97;61.14;100039.50;9760687;29;97599;-88
2023/08/23 08:06:24;;;;;;;;;;;29.80;91.10;;;29.04;60.86;100040.78;9741882;29;97605;-89
2023/08/23 08:11:28;;;;;;;;;;;29.90;90.90;;;29.12;60.02;100033.81;9742070;29;97284;-89
2023/08/23 08:16:32;;;;;;;;;;;30.00;90.70;;;29.27;59.72;100055.50;9747332;29;97621;-89
2023/08/23 08:21:36;;;;;;;;;;;30.00;90.40;;;29.38;59.73;100049.88;9757960;29;98140;-87
2023/08/23 08:26:40;;;;;;;;;;;30.20;90.30;;;29.54;57.70;100045.84;9754399;29;97286;-92
2023/08/23 08:31:44;;;;;;;;;;;30.30;89.10;;;29.68;58.06;100030.25;9725519;29;97202;-89
2023/08/23 08:36:48;;;;;;;;;;;30.50;88.80;;;29.87;57.71;100024.75;9739955;29;97681;-89
2023/08/23 08:41:52;;;;;;;;;;;30.70;88.10;;;30.11;55.78;100030.94;9746819;29;97553;-90
2023/08/23 08:46:55;;;;;;;;;;;30.90;85.90;;;30.20;55.26;100027.50;9743714;29;97374;-91
2023/08/23 08:52:03;;;;;;;;;;;31.00;85.10;;;30.31;55.66;100040.69;9754220;29;97020;-94
2023/08/23 08:57:08;;;;;;;;;;;31.10;85.40;;;30.43;53.85;100034.72;9757297;29;98888;-91
2023/08/23 09:02:15;;;;;;;;;;;31.30;83.10;;;30.54;54.17;100027.91;9746166;29;97138;-91
2023/08/23 09:07:18;;;;;;;;;;;31.30;83.70;;;30.71;55.15;100026.50;9745326;29;98782;-91
2023/08/23 09:12:21;;;;;;;;;;;31.50;84.20;;;30.84;53.85;100023.78;9723744;29;97199;-90
2023/08/23 09:17:26;;;;;;;;;;;31.60;83.20;;;30.88;52.95;100026.69;9753491;29;97082;-91
2023/08/23 09:22:30;;;;;;;;;;;31.70;81.80;;;30.96;51.81;100026.00;9767086;29;97100;-91
2023/08/23 09:27:34;;;;;;;;;;;31.80;81.40;;;31.08;52.75;100034.50;9763821;29;96607;-93
2023/08/23 09:32:41;;;;;;;;;;;31.90;81.40;;;31.24;53.31;100034.13;9732092;29;97407;-90
2023/08/23 09:37:47;;;;;;;;;;;32.10;81.60;;;31.36;53.00;100015.22;9745028;29;98487;-90
2023/08/23 09:42:52;;;;;;;;;;;32.10;81.40;;;31.47;53.00;100019.34;9747357;29;97139;-90
2023/08/23 09:48:00;;;;;;;;;;;32.30;81.40;;;31.60;52.88;100029.44;9729669;29;96756;-92
2023/08/23 09:53:15;;;;;;;;;;;32.40;81.20;;;31.73;52.40;100019.56;9735937;29;98237;-90
2023/08/23 09:58:20;;;;;;;;;;;32.50;80.90;;;31.89;52.89;100029.03;9728740;29;97598;-95
2023/08/23 10:03:24;;;;;;;;;;;32.70;81.30;;;32.05;51.79;100037.72;9740068;29;98304;-92
2023/08/23 10:08:33;;;;;;;;;;;32.80;80.20;;;32.10;51.02;100025.78;9751053;29;97329;-93
2023/08/23 10:13:41;;;;;;;;;;;32.90;79.60;;;32.15;48.81;100042.94;9757190;29;96817;-94
2023/08/23 10:18:44;;;;;;;;;;;32.90;76.80;;;32.22;50.21;100026.81;9741676;29;96870;-94
2023/08/23 10:23:48;;;;;;;;;;;33.00;78.00;;;32.41;50.80;100028.53;9741036;29;96953;-93
2023/08/23 10:28:53;;;;;;;;;;;33.10;78.60;;;32.52;50.60;100024.38;9722758;29;98171;-94
2023/08/23 10:33:57;;;;;;;;;;;33.40;78.20;;;32.59;49.87;100027.47;9752822;29;96840;-93
2023/08/23 10:39:03;;;;;;;;;;;33.40;78.00;;;32.47;49.53;100019.81;9745580;29;96903;-93
2023/08/23 10:44:16;;;;;;;;;;;33.30;76.60;;;32.35;49.49;100027.84;9725135;29;98418;-92
2023/08/23 10:49:25;;;;;;;;;;;33.10;76.00;;;32.27;51.28;100017.63;9757688;29;96666;-95
2023/08/23 10:54:36;;;;;;;;;;;33.00;78.40;;;32.22;49.96;100015.00;9746544;29;97468;-92
2023/08/23 10:59:41;;;;;;;;;;;33.00;76.80;;;32.17;51.46;100004.94;9754785;29;96654;-94
2023/08/23 11:04:45;;;;;;;;;;;33.00;78.50;;;32.26;50.40;100013.22;9738316;29;98971;-95
2023/08/23 11:09:50;;;;;;;;;;;33.00;77.40;;;32.38;50.97;100012.66;9766448;29;98612;-93
2023/08/23 11:14:55;;;;;;;;;;;33.10;77.60;;;32.48;51.96;100012.38;9754931;29;97884;-92
2023/08/23 11:20:00;;;;;;;;;;;33.20;78.70;;;32.52;50.95;100001.56;9753736;29;98687;-92
2023/08/23 11:25:04;;;;;;;;;;;33.30;77.90;;;32.56;50.06;99991.50;9742084;29;98643;-93
2023/08/23 11:30:08;;;;;;;;;;;33.30;76.90;;;32.64;51.14;99982.50;9752855;29;98625;-93
2023/08/23 11:35:12;;;;;;;;;;;33.40;78.30;;;32.83;48.92;99985.75;9760981;29;98337;-93
2023/08/23 11:40:16;;;;;;;;;;;33.60;74.80;;;32.95;48.02;99983.22;9760179;29;98638;-93
2023/08/23 11:45:21;;;;;;;;;;;33.80;74.20;;;33.05;45.56;99975.75;9747241;29;96743;-95
2023/08/23 11:50:27;;;;;;;;;;;33.90;72.60;;;33.08;46.75;99978.69;9741397;29;98137;-93
2023/08/23 11:55:33;;;;;;;;;;;33.80;72.80;;;33.29;46.22;99970.59;9717308;29;97326;-93
2023/08/23 12:00:37;;;;;;;;;;;34.00;72.60;;;33.37;44.76;99956.00;9749394;29;96723;-93
2023/08/23 12:05:40;;;;;;;;;;;34.20;71.00;;;33.60;43.45;99964.91;9743134;29;97159;-95
2023/08/23 12:10:44;;;;;;;;;;;34.30;69.30;;;33.48;43.27;99962.03;9755922;29;99276;-94
2023/08/23 12:15:47;;;;;;;;;;;34.30;68.50;;;33.36;43.49;99970.09;9736467;29;96793;-93
2023/08/23 12:20:51;;;;;;;;;;;34.10;69.10;;;33.09;44.79;99966.53;9758372;29;98630;-92
2023/08/23 12:25:54;;;;;;;;;;;33.80;70.00;;;32.87;44.79;99970.28;9752235;29;98425;-89
2023/08/23 12:30:58;;;;;;;;;;;33.60;70.20;;;32.75;45.36;99973.63;9745904;29;97191;-88
2023/08/23 12:36:01;;;;;;;;;;;33.50;70.60;;;32.80;44.62;99969.06;9747616;29;97918;-86
2023/08/23 12:41:04;;;;;;;;;;;33.60;69.30;;;33.00;45.35;99974.00;9748044;29;98807;-89
2023/08/23 12:46:08;;;;;;;;;;;33.70;70.70;;;33.26;44.00;99961.03;9745855;29;97424;-89
2023/08/23 12:51:12;;;;;;;;;;;33.90;68.90;;;33.47;43.69;99960.41;9728076;29;96790;-89
2023/08/23 12:56:15;;;;;;;;;;;34.10;68.20;;;33.62;43.05;99951.59;9715852;29;97652;-89
2023/08/23 13:01:25;;;;;;;;;;;34.30;68.50;;;33.66;42.18;99938.00;9720270;29;96732;-88
2023/08/23 13:06:28;;;;;;;;;;;34.40;67.20;;;33.72;41.67;99944.94;9723805;29;97729;-88
2023/08/23 13:11:32;;;;;;;;;;;34.50;66.50;;;33.65;41.24;99941.88;9748992;29;97554;-90
2023/08/23 13:16:35;;;;;;;;;;;34.40;65.80;;;33.55;40.17;99929.28;9739063;29;98572;-89
2023/08/23 13:21:39;;;;;;;;;;;34.30;64.60;;;33.68;41.28;99936.53;9735578;29;98706;-90
2023/08/23 13:26:45;;;;;;;;;;;34.40;65.30;;;33.84;40.12;99931.28;9749607;29;97450;-88
2023/08/23 13:31:51;;;;;;;;;;;34.70;64.40;;;33.91;40.99;99928.03;9761070;29;96797;-90
2023/08/23 13:36:57;;;;;;;;;;;34.80;64.80;;;33.93;40.54;99923.00;9774994;29;97088;-90
2023/08/23 13:42:01;;;;;;;;;;;34.70;65.00;;;33.73;39.95;99922.56;9775169;29;97536;-92
2023/08/23 13:47:04;;;;;;;;;;;34.60;63.20;;;33.42;40.51;99930.28;9762378;29;96797;-91
2023/08/23 13:52:08;;;;;;;;;;;34.20;63.80;;;33.06;42.04;99928.66;9781610;29;96622;-91
2023/08/23 13:57:12;;;;;;;;;;;33.90;65.70;;;33.03;43.28;99918.28;9784820;29;96570;-91
2023/08/23 14:02:15;;;;;;;;;;;33.70;66.80;;;33.01;43.80;99926.06;9760077;29;97626;-92
2023/08/23 14:07:19;;;;;;;;;;;33.80;67.00;;;33.04;43.77;99936.41;9744649;29;96689;-91
2023/08/23 14:12:22;;;;;;;;;;;33.90;67.70;;;33.09;44.43;99936.25;9753212;29;97851;-91
2023/08/23 14:17:27;;;;;;;;;;;34.00;67.70;;;33.25;41.20;99942.91;9747902;29;96834;-92
2023/08/23 14:22:31;;;;;;;;;;;34.30;64.00;;;33.57;40.69;99949.03;9755704;29;96769;-93
2023/08/23 14:27:37;;;;;;;;;;;34.90;62.90;;;33.99;38.24;99947.31;9758731;29;100091;-92
2023/08/23 14:32:47;;;;;;;;;;;35.50;59.80;;;34.39;37.02;99959.94;9713412;29;97246;-92
2023/08/23 14:37:54;;;;;;;;;;;35.90;58.20;;;34.57;36.50;99947.69;9759039;29;98358;-91
2023/08/23 14:42:57;;;;;;;;;;;36.10;58.40;;;34.57;36.78;99950.47;9753681;29;97652;-91
2023/08/23 14:48:01;;;;;;;;;;;36.00;57.80;;;34.25;37.13;99958.25;9740488;29;96738;-91
2023/08/23 14:53:04;;;;;;;;;;;35.60;58.70;;;33.89;36.82;99966.09;9743044;29;96812;-91
2023/08/23 14:58:13;;;;;;;;;;;35.20;58.30;;;33.29;38.26;99978.88;9726178;29;98432;-90
2023/08/23 15:03:17;;;;;;;;;;;34.40;59.60;;;33.12;39.17;99957.66;9755050;29;96724;-91
2023/08/23 15:08:24;;;;;;;;;;;34.20;60.70;;;33.60;38.22;99966.88;9760520;29;97490;-90
2023/08/23 15:13:30;;;;;;;;;;;34.70;60.00;;;33.94;37.89;99972.28;9735079;29;97963;-91
2023/08/23 15:18:34;;;;;;;;;;;35.00;59.60;;;34.33;38.69;99979.44;9756260;29;97042;-90
2023/08/23 15:23:40;;;;;;;;;;;35.40;60.40;;;34.38;37.92;99977.63;9748818;29;98793;-92
2023/08/23 15:28:44;;;;;;;;;;;35.50;59.60;;;33.90;39.98;99974.06;9721285;29;96732;-89
2023/08/23 15:33:59;;;;;;;;;;;34.90;61.30;;;33.35;41.37;99982.22;9755108;29;96938;-90
2023/08/23 15:39:05;;;;;;;;;;;34.30;63.00;;;32.81;42.77;99973.44;9739654;29;98320;-91
2023/08/23 15:44:09;;;;;;;;;;;33.70;64.90;;;32.42;44.61;99995.22;9752302;29;96739;-90
2023/08/23 15:49:12;;;;;;;;;;;33.20;67.10;;;32.05;45.95;99988.25;9762619;29;96823;-90
2023/08/23 15:54:23;;;;;;;;;;;32.80;67.90;;;31.77;47.30;99984.00;9750614;29;96715;-90
2023/08/23 15:59:27;;;;;;;;;;;32.50;69.60;;;31.90;48.46;99966.66;9744819;29;98288;-90
2023/08/23 16:04:32;;;;;;;;;;;32.70;70.60;;;32.31;46.62;99960.03;9760256;29;97836;-90
2023/08/23 16:09:36;;;;;;;;;;;33.10;68.20;;;32.61;44.90;99942.66;9768966;29;97717;-91
2023/08/23 16:14:41;;;;;;;;;;;33.50;66.50;;;32.74;44.42;99955.47;9752065;29;96707;-91
2023/08/23 16:19:45;;;;;;;;;;;33.60;66.20;;;32.74;44.56;99946.41;9753433;29;96691;-90
2023/08/23 16:24:49;;;;;;;;;;;33.60;66.80;;;32.64;44.55;99949.50;9752681;29;97051;-90
2023/08/23 16:29:54;;;;;;;;;;;33.40;66.40;;;32.61;44.50;99945.41;9748043;29;97698;-90
2023/08/23 16:34:58;;;;;;;;;;;33.40;66.70;;;32.53;45.03;99937.97;9727793;29;96756;-90
2023/08/23 16:40:03;;;;;;;;;;;33.30;66.90;;;32.28;44.76;99958.75;9749878;29;97859;-90
2023/08/23 16:45:10;;;;;;;;;;;33.10;66.70;;;31.94;46.31;99964.91;9758689;29;96632;-91
2023/08/23 16:50:17;;;;;;;;;;;32.70;68.00;;;31.62;46.89;99958.56;9752159;29;97264;-90
2023/08/23 16:55:23;;;;;;;;;;;32.40;69.10;;;31.15;47.65;99962.72;9764820;29;96686;-90
2023/08/23 17:00:27;;;;;;;;;;;31.90;69.50;;;30.75;49.55;99956.22;9746284;29;96621;-90
2023/08/23 17:05:32;;;;;;;;;;;31.40;70.90;;;30.26;50.59;99950.34;9757055;29;98282;-90
2023/08/23 17:10:39;;;;;;;;;;;31.00;72.00;;;29.94;51.45;99958.63;9766871;29;97914;-90
2023/08/23 17:15:44;;;;;;;;;;;30.60;72.80;;;29.55;52.81;99963.41;9759086;29;99205;-89
2023/08/23 17:21:02;;;;;;;;;;;30.30;73.90;;;29.33;53.37;99971.41;9764676;29;98271;-89
2023/08/23 17:26:06;;;;;;;;;;;30.00;74.30;;;29.04;54.02;99974.31;9777887;29;97541;-89
2023/08/23 17:31:11;;;;;;;;;;;29.80;74.90;;;28.79;54.49;99983.66;9763995;29;97881;-89
2023/08/23 17:36:18;;;;;;;;;;;29.50;75.00;;;28.56;55.55;99985.31;9780951;29;96997;-88
2023/08/23 17:41:21;;;;;;;;;;;29.30;75.70;;;28.34;55.00;99993.22;9757134;29;98683;-88
2023/08/23 17:46:36;;;;;;;;;;;29.10;75.30;;;28.18;54.74;100000.72;9765505;29;96930;-89
2023/08/23 17:51:40;;;;;;;;;;;28.90;74.90;;;27.98;55.15;100008.03;9747541;29;96675;-88
2023/08/23 17:56:43;;;;;;;;;;;28.80;75.10;;;27.88;55.42;100002.66;9734514;29;96819;-88
2023/08/23 18:01:47;;;;;;;;;;;28.60;75.30;;;27.77;55.54;100006.59;9734449;29;98549;-89
2023/08/23 18:06:51;;;;;;;;;;;28.50;75.30;;;27.65;55.36;100014.28;9740501;29;97604;-88
2023/08/23 18:11:54;;;;;;;;;;;28.40;75.30;;;27.50;55.95;100017.97;9747060;29;98578;-89
2023/08/23 18:16:58;;;;;;;;;;;28.30;75.60;;;27.40;56.14;100029.75;9736887;29;96935;-89
2023/08/23 18:22:02;;;;;;;;;;;28.20;75.70;;;27.29;56.67;100030.94;9712343;29;96750;-91
2023/08/23 18:27:06;;;;;;;;;;;28.10;76.00;;;27.23;56.77;100045.72;9727393;29;98781;-90
2023/08/23 18:32:10;;;;;;;;;;;28.00;76.30;;;27.12;57.35;100039.50;9738837;29;96741;-90
2023/08/23 18:37:15;;;;;;;;;;;27.90;76.30;;;27.07;57.56;100057.81;9749831;29;96930;-89
2023/08/23 18:42:18;;;;;;;;;;;27.90;76.10;;;27.02;57.57;100055.06;9732818;29;96714;-90
2023/08/23 18:47:22;;;;;;;;;;;27.90;76.70;;;27.01;57.48;100069.78;9731990;29;96945;-89
2023/08/23 18:52:25;;;;;;;;;;;27.80;76.50;;;26.97;57.25;100068.72;9737453;29;97734;-88
2023/08/23 18:57:29;;;;;;;;;;;27.80;76.40;;;26.92;57.92;100073.09;9734629;29;98778;-89
2023/08/23 19:02:32;;;;;;;;;;;27.80;76.20;;;26.91;58.17;100067.91;9739369;29;99029;-89
2023/08/23 19:07:36;;;;;;;;;;;27.80;76.50;;;26.85;58.53;100078.03;9710229;29;97268;-88
2023/08/23 19:12:40;;;;;;;;;;;27.70;77.60;;;26.77;58.75;100080.53;9754712;29;96738;-88
2023/08/23 19:17:44;;;;;;;;;;;27.60;77.00;;;26.69;58.96;100084.66;9727890;29;98989;-89
2023/08/23 19:22:49;;;;;;;;;;;27.50;77.70;;;26.66;59.44;100107.81;9725531;29;99120;-89
2023/08/23 19:27:53;;;;;;;;;;;27.50;77.90;;;26.50;60.47;100113.56;9743311;29;98437;-89
2023/08/23 19:32:59;;;;;;;;;;;27.30;78.50;;;26.42;59.99;100113.03;9752854;29;98536;-89
2023/08/23 19:38:03;;;;;;;;;;;27.30;78.80;;;26.35;61.62;100117.09;9741993;29;97153;-91
2023/08/23 19:43:07;;;;;;;;;;;27.20;79.50;;;26.25;61.92;100142.44;9763221;29;96684;-89
2023/08/23 19:48:10;;;;;;;;;;;27.00;80.00;;;26.10;62.82;100147.88;9757465;29;96889;-91
2023/08/23 19:53:34;;;;;;;;;;;26.90;79.60;;;25.97;63.58;100148.41;9744031;29;100785;-90
2023/08/23 19:58:37;;;;;;;;;;;26.80;80.70;;;25.85;64.85;100163.13;9756843;29;96872;-91
2023/08/23 20:03:41;;;;;;;;;;;26.60;81.20;;;25.71;66.88;100158.41;9749960;29;98320;-92
2023/08/23 20:08:44;;;;;;;;;;;26.60;80.50;;;25.60;68.67;100171.97;9743449;29;96764;-91
2023/08/23 20:13:48;;;;;;;;;;;26.50;83.30;;;25.51;69.63;100172.78;9737715;29;98859;-91
2023/08/23 20:18:51;;;;;;;;;;;26.40;84.00;;;25.47;69.37;100190.72;9739785;29;98455;-91
2023/08/23 20:23:55;;;;;;;;;;;26.30;84.00;;;25.35;71.46;100191.75;9726941;29;100070;-90
2023/08/23 20:28:58;;;;;;;;;;;26.20;85.70;;;25.22;72.65;100184.09;9728103;29;98396;-90
2023/08/23 20:34:05;;;;;;;;;;;26.00;87.10;;;25.04;73.26;100174.44;9722248;29;98364;-90
2023/08/23 20:39:08;;;;;;;;;;;25.90;86.60;;;24.95;73.78;100183.34;9736283;29;96813;-90
2023/08/23 20:44:14;;;;;;;;;;;25.80;87.20;;;24.87;75.55;100192.00;9742386;29;98336;-92
2023/08/23 20:49:22;;;;;;;;;;;25.70;88.50;;;24.72;75.39;100192.75;9737215;29;97826;-88
2023/08/23 20:54:26;;;;;;;;;;;25.60;88.50;;;24.68;76.53;100197.88;9742904;29;98627;-88
2023/08/23 20:59:31;;;;;;;;;;;25.50;89.30;;;24.59;77.97;100212.19;9739163;29;97435;-88
2023/08/23 21:04:35;;;;;;;;;;;25.40;90.30;;;24.44;79.03;100202.03;9751223;29;97713;-88
2023/08/23 21:09:41;;;;;;;;;;;25.20;90.70;;;24.34;79.94;100197.31;9739812;29;99260;-90
2023/08/23 21:14:47;;;;;;;;;;;25.10;90.70;;;24.27;80.79;100208.38;9736314;29;97276;-91
2023/08/23 21:19:51;;;;;;;;;;;25.10;91.40;;;24.20;82.12;100218.63;9739752;29;98213;-90
2023/08/23 21:24:57;;;;;;;;;;;25.00;91.70;;;24.11;82.36;100208.47;9759597;29;97583;-89
2023/08/23 21:30:00;;;;;;;;;;;24.90;91.50;;;23.99;82.61;100206.78;9738077;29;98936;-90
2023/08/23 21:35:04;;;;;;;;;;;24.80;92.00;;;23.95;83.50;100215.66;9733932;29;99004;-88
2023/08/23 21:40:11;;;;;;;;;;;24.80;92.50;;;23.84;83.54;100220.16;9747600;29;97705;-88
2023/08/23 21:45:15;;;;;;;;;;;24.70;92.80;;;23.72;84.40;100214.06;9752029;29;96687;-90
2023/08/23 21:50:18;;;;;;;;;;;24.60;92.60;;;23.68;85.01;100219.16;9749415;29;99131;-89
2023/08/23 21:55:25;;;;;;;;;;;24.50;92.90;;;23.60;86.00;100218.75;9737204;29;96735;-90
2023/08/23 22:00:28;;;;;;;;;;;24.40;93.30;;;23.48;85.92;100206.16;9738001;29;97232;-90
2023/08/23 22:05:31;;;;;;;;;;;24.30;92.80;;;23.48;86.21;100217.00;9757787;29;97726;-90
2023/08/23 22:10:35;;;;;;;;;;;24.30;93.00;;;23.43;87.08;100197.13;9765691;29;96581;-90
2023/08/23 22:15:41;;;;;;;;;;;24.30;93.60;;;23.38;87.22;100207.91;9733370;29;98654;-90
2023/08/23 22:20:45;;;;;;;;;;;24.30;93.70;;;23.27;88.71;100200.72;9737601;29;96839;-89
2023/08/23 22:25:49;;;;;;;;;;;24.20;94.20;;;23.17;88.75;100193.28;9734451;29;97236;-90
2023/08/23 22:30:55;;;;;;;;;;;24.00;93.80;;;23.09;89.22;100191.84;9734282;29;97384;-89
2023/08/23 22:35:59;;;;;;;;;;;24.00;93.90;;;23.06;89.79;100184.19;9749365;29;97357;-89
2023/08/23 22:41:04;;;;;;;;;;;24.00;94.40;;;23.06;90.52;100188.78;9744066;29;96629;-90
2023/08/23 22:46:08;;;;;;;;;;;24.00;95.00;;;23.06;90.97;100191.50;9741603;29;98326;-89
2023/08/23 22:51:31;;;;;;;;;;;23.90;95.30;;;23.05;90.51;100192.59;9736565;29;97306;-90
2023/08/23 22:56:38;;;;;;;;;;;23.90;94.70;;;23.03;90.69;100186.56;9726289;29;99283;-90
2023/08/23 23:01:43;;;;;;;;;;;23.90;94.90;;;22.96;90.70;100192.16;9759082;29;98400;-90
2023/08/23 23:06:47;;;;;;;;;;;23.90;94.90;;;22.93;91.64;100193.50;9756440;29;98813;-90
2023/08/23 23:11:51;;;;;;;;;;;23.80;95.30;;;22.89;92.17;100199.66;9733985;29;97702;-90